createdAt,value
2022-09-30T00:00:12.929Z,13.88
2022-09-30T00:00:45.809Z,13.55
2022-09-30T00:01:17.963Z,14.18
2022-09-30T00:01:50.916Z,12.45
2022-09-30T00:02:23.971Z,14.23
2022-09-30T00:02:55.914Z,14.20
2022-09-30T00:03:28.834Z,12.93
2022-09-30T00:04:01.707Z,14.82
2022-09-30T00:04:34.433Z,13.23
2022-09-30T00:05:06.662Z,13.40
2022-09-30T00:05:38.436Z,13.27
2022-09-30T00:06:12.067Z,13.30
2022-09-30T00:06:44.247Z,14.75
2022-09-30T00:07:16.010Z,12.48
2022-09-30T00:07:47.766Z,13.43
2022-09-30T00:08:20.492Z,14.23
2022-09-30T00:08:53.277Z,13.82
2022-09-30T00:09:26.178Z,12.95
2022-09-30T00:09:58.173Z,12.27
2022-09-30T00:10:29.930Z,12.05
2022-09-30T00:11:04.434Z,14.63
2022-09-30T00:11:38.570Z,12.77
2022-09-30T00:12:10.591Z,13.48
2022-09-30T00:12:43.350Z,15.27
2022-09-30T00:13:15.284Z,15.05
2022-09-30T00:13:50.409Z,13.73
2022-09-30T00:14:24.510Z,14.13
2022-09-30T00:14:56.497Z,14.15
2022-09-30T00:15:29.642Z,14.13
2022-09-30T00:16:03.166Z,14.02
2022-09-30T00:16:36.705Z,14.40
2022-09-30T00:17:09.510Z,14.77
2022-09-30T00:17:41.286Z,12.00
2022-09-30T00:18:13.099Z,13.15
2022-09-30T00:18:46.501Z,14.40
2022-09-30T00:19:18.635Z,14.20
2022-09-30T00:19:50.399Z,13.82
2022-09-30T00:20:23.165Z,13.52
2022-09-30T00:20:55.171Z,13.95
2022-09-30T00:21:28.539Z,13.23
2022-09-30T00:22:01.316Z,12.40
2022-09-30T00:22:33.130Z,14.27
2022-09-30T00:23:04.886Z,13.35
2022-09-30T00:23:39.146Z,16.33
2022-09-30T00:24:11.326Z,13.25
2022-09-30T00:24:43.181Z,13.95
2022-09-30T00:25:16.100Z,13.25
2022-09-30T00:25:48.147Z,16.52
2022-09-30T00:26:22.504Z,13.77
2022-09-30T00:26:55.314Z,12.98
2022-09-30T00:27:27.075Z,12.60
2022-09-30T00:27:58.836Z,13.75
2022-09-30T00:28:31.890Z,12.60
2022-09-30T00:29:04.494Z,11.95
2022-09-30T00:29:37.224Z,13.10
2022-09-30T00:30:09.891Z,13.30
2022-09-30T00:30:43.706Z,13.93
2022-09-30T00:31:17.842Z,13.77
2022-09-30T00:31:49.749Z,12.80
2022-09-30T00:32:21.551Z,12.98
2022-09-30T00:32:54.325Z,12.18
2022-09-30T00:33:26.204Z,13.27
2022-09-30T00:34:07.729Z,13.52
2022-09-30T00:34:40.658Z,13.68
2022-09-30T00:35:12.429Z,13.52
2022-09-30T00:35:44.212Z,12.75
2022-09-30T00:36:16.962Z,11.43
2022-09-30T00:36:50.720Z,13.82
2022-09-30T00:37:23.602Z,12.32
2022-09-30T00:37:55.378Z,12.15
2022-09-30T00:38:27.221Z,12.30
2022-09-30T00:38:58.992Z,11.50
2022-09-30T00:39:31.745Z,11.10
2022-09-30T00:40:03.819Z,12.57
2022-09-30T00:40:38.269Z,12.55
2022-09-30T00:41:10.056Z,12.63
2022-09-30T00:41:43.279Z,11.50
2022-09-30T00:42:15.613Z,11.77
2022-09-30T00:42:47.431Z,11.50
2022-09-30T00:43:39.369Z,13.18
2022-09-30T00:44:50.814Z,11.00
2022-09-30T00:45:24.126Z,12.45
2022-09-30T00:46:00.004Z,11.23
2022-09-30T00:46:35.487Z,12.80
2022-09-30T00:47:30.615Z,12.68
2022-09-30T00:48:08.068Z,11.13
2022-09-30T00:48:41.001Z,10.30
2022-09-30T00:49:19.014Z,10.73
2022-09-30T00:49:51.712Z,12.15
2022-09-30T00:50:30.301Z,11.77
2022-09-30T00:51:04.279Z,11.10
2022-09-30T00:51:40.962Z,12.02
2022-09-30T00:52:14.414Z,12.05
2022-09-30T00:52:50.465Z,13.48
2022-09-30T00:53:29.592Z,10.10
2022-09-30T00:54:04.736Z,11.77
2022-09-30T00:54:36.641Z,11.30
2022-09-30T00:55:16.963Z,11.18
2022-09-30T00:55:54.721Z,10.73
2022-09-30T00:56:31.854Z,12.57
2022-09-30T00:57:07.972Z,11.52
2022-09-30T00:57:40.760Z,12.10
2022-09-30T00:58:18.494Z,12.35
2022-09-30T00:58:53.541Z,10.13
2022-09-30T00:59:29.248Z,11.88
2022-09-30T01:00:02.658Z,11.45
2022-09-30T01:00:34.802Z,11.90
2022-09-30T01:01:09.624Z,13.10
2022-09-30T01:01:42.126Z,12.02
2022-09-30T01:02:14.740Z,11.65
2022-09-30T01:02:47.322Z,11.95
2022-09-30T01:03:22.624Z,11.90
2022-09-30T01:03:57.253Z,11.35
2022-09-30T01:04:31.494Z,11.32
2022-09-30T01:05:04.741Z,11.90
2022-09-30T01:05:36.601Z,11.25
2022-09-30T01:06:08.365Z,11.32
2022-09-30T01:06:41.797Z,12.88
2022-09-30T01:07:15.074Z,11.95
2022-09-30T01:07:49.261Z,11.77
2022-09-30T01:08:23.233Z,11.75
2022-09-30T01:08:55.203Z,12.95
2022-09-30T01:09:27.485Z,12.40
2022-09-30T01:09:59.485Z,10.77
2022-09-30T01:10:32.418Z,11.98
2022-09-30T01:11:07.990Z,12.02
2022-09-30T01:11:41.407Z,11.82
2022-09-30T01:12:17.836Z,11.20
2022-09-30T01:12:49.675Z,11.70
2022-09-30T01:13:27.302Z,11.35
2022-09-30T01:14:02.673Z,11.70
2022-09-30T01:14:35.801Z,10.77
2022-09-30T01:15:09.546Z,11.80
2022-09-30T01:15:56.368Z,12.30
2022-09-30T01:16:42.992Z,11.80
2022-09-30T01:17:20.728Z,11.75
2022-09-30T01:18:00.004Z,11.45
2022-09-30T01:18:43.961Z,11.55
2022-09-30T01:19:44.104Z,12.15
2022-09-30T01:20:51.662Z,11.48
2022-09-30T01:21:59.392Z,11.98
2022-09-30T01:22:42.408Z,10.77
2022-09-30T01:23:51.273Z,11.60
2022-09-30T01:24:40.357Z,10.15
2022-09-30T01:25:48.767Z,11.20
2022-09-30T01:26:56.556Z,10.38
2022-09-30T01:27:57.908Z,14.02
2022-09-30T01:29:00.773Z,10.70
2022-09-30T01:30:03.452Z,11.50
2022-09-30T01:30:49.375Z,10.60
2022-09-30T01:31:43.730Z,12.30
2022-09-30T01:32:26.370Z,10.25
2022-09-30T01:33:16.971Z,10.15
2022-09-30T01:34:01.486Z,10.52
2022-09-30T01:34:43.767Z,10.07
2022-09-30T01:35:25.328Z,9.95
2022-09-30T01:36:12.013Z,10.85
2022-09-30T01:36:59.309Z,9.93
2022-09-30T01:37:41.293Z,11.52
2022-09-30T01:38:22.122Z,8.82
2022-09-30T01:39:03.650Z,8.85
2022-09-30T01:39:46.745Z,10.73
2022-09-30T01:40:23.630Z,11.55
2022-09-30T01:41:04.808Z,14.10
2022-09-30T01:41:44.501Z,16.30
2022-09-30T01:42:37.265Z,24.83
2022-09-30T01:43:14.222Z,18.17
2022-09-30T01:43:53.046Z,15.23
2022-09-30T01:44:32.756Z,13.85
2022-09-30T01:45:10.998Z,11.52
2022-09-30T01:45:49.224Z,12.10
2022-09-30T01:46:31.494Z,11.10
2022-09-30T01:47:11.809Z,10.43
2022-09-30T01:47:48.309Z,11.10
2022-09-30T01:48:24.117Z,12.10
2022-09-30T01:49:07.304Z,10.40
2022-09-30T01:49:43.292Z,11.75
2022-09-30T01:50:20.752Z,10.73
2022-09-30T01:50:56.661Z,10.25
2022-09-30T01:51:33.106Z,10.50
2022-09-30T01:52:09.956Z,10.15
2022-09-30T01:52:48.861Z,11.77
2022-09-30T01:53:27.628Z,10.70
2022-09-30T01:54:04.197Z,11.10
2022-09-30T01:54:43.157Z,10.68
2022-09-30T01:55:21.917Z,11.02
2022-09-30T01:55:59.701Z,10.50
2022-09-30T01:56:38.931Z,10.10
2022-09-30T01:57:17.990Z,11.73
2022-09-30T01:57:58.827Z,11.13
2022-09-30T01:58:37.081Z,10.15
2022-09-30T01:59:14.986Z,11.75
2022-09-30T01:59:51.217Z,11.30
2022-09-30T02:00:23.125Z,10.38
2022-09-30T02:01:06.006Z,10.25
2022-09-30T02:01:44.749Z,12.82
2022-09-30T02:02:19.542Z,10.45
2022-09-30T02:02:55.297Z,10.13
2022-09-30T02:03:34.036Z,11.10
2022-09-30T02:04:09.505Z,10.52
2022-09-30T02:04:45.513Z,10.77
2022-09-30T02:05:22.507Z,9.70
2022-09-30T02:06:02.153Z,9.77
2022-09-30T02:06:39.480Z,10.02
2022-09-30T02:07:17.152Z,10.15
2022-09-30T02:07:56.557Z,10.35
2022-09-30T02:08:33.452Z,9.85
2022-09-30T02:09:09.707Z,9.57
2022-09-30T02:09:49.105Z,9.25
2022-09-30T02:10:25.010Z,10.38
2022-09-30T02:11:00.390Z,9.75
2022-09-30T02:11:36.988Z,11.25
2022-09-30T02:12:14.727Z,10.75
2022-09-30T02:12:52.708Z,10.23
2022-09-30T02:13:31.870Z,10.45
2022-09-30T02:14:09.603Z,10.85
2022-09-30T02:14:46.085Z,11.52
2022-09-30T02:15:23.123Z,10.35
2022-09-30T02:16:00.461Z,10.52
2022-09-30T02:16:39.863Z,10.27
2022-09-30T02:17:17.431Z,9.50
2022-09-30T02:17:55.125Z,10.30
2022-09-30T02:18:32.333Z,9.82
2022-09-30T02:19:14.728Z,11.10
2022-09-30T02:19:50.937Z,10.48
2022-09-30T02:20:26.051Z,10.18
2022-09-30T02:21:01.836Z,10.30
2022-09-30T02:21:39.389Z,9.43
2022-09-30T02:22:16.385Z,11.05
2022-09-30T02:22:52.020Z,9.88
2022-09-30T02:23:28.880Z,10.02
2022-09-30T02:24:05.556Z,9.13
2022-09-30T02:24:39.604Z,9.75
2022-09-30T02:25:20.125Z,8.43
2022-09-30T02:25:59.078Z,9.05
2022-09-30T02:26:34.325Z,9.55
2022-09-30T02:27:12.049Z,8.18
2022-09-30T02:27:48.877Z,9.73
2022-09-30T02:28:27.024Z,9.77
2022-09-30T02:29:04.259Z,9.40
2022-09-30T02:29:39.661Z,8.07
2022-09-30T02:30:13.787Z,8.63
2022-09-30T02:30:51.085Z,9.70
2022-09-30T02:31:26.888Z,8.25
2022-09-30T02:32:04.965Z,10.05
2022-09-30T02:32:42.612Z,9.70
2022-09-30T02:33:20.487Z,9.90
2022-09-30T02:33:56.400Z,8.55
2022-09-30T02:34:32.722Z,8.88
2022-09-30T02:35:07.566Z,9.07
2022-09-30T02:35:46.430Z,9.80
2022-09-30T02:36:24.449Z,9.30
2022-09-30T02:37:08.224Z,10.48
2022-09-30T02:37:45.289Z,9.70
2022-09-30T02:38:19.624Z,8.85
2022-09-30T02:39:00.241Z,9.15
2022-09-30T02:39:42.693Z,11.05
2022-09-30T02:40:20.966Z,34.60
2022-09-30T02:40:57.499Z,25.50
2022-09-30T02:41:34.437Z,40.70
2022-09-30T02:42:15.001Z,39.42
2022-09-30T02:42:49.009Z,29.70
2022-09-30T02:43:21.421Z,20.92
2022-09-30T02:43:54.797Z,16.15
2022-09-30T02:44:28.168Z,14.48
2022-09-30T02:45:03.218Z,13.38
2022-09-30T02:45:43.045Z,11.07
2022-09-30T02:46:26.302Z,9.90
2022-09-30T02:47:09.540Z,10.02
2022-09-30T02:47:51.078Z,10.30
2022-09-30T02:48:31.869Z,11.40
2022-09-30T02:49:08.406Z,10.30
2022-09-30T02:49:46.580Z,10.50
2022-09-30T02:50:27.373Z,9.80
2022-09-30T02:51:06.115Z,9.20
2022-09-30T02:51:43.608Z,10.05
2022-09-30T02:52:25.801Z,10.63
2022-09-30T02:53:14.270Z,10.50
2022-09-30T02:53:53.903Z,10.23
2022-09-30T02:54:34.517Z,10.23
2022-09-30T02:55:18.801Z,9.15
2022-09-30T02:56:06.506Z,10.25
2022-09-30T02:56:47.453Z,9.50
2022-09-30T02:57:31.237Z,9.43
2022-09-30T02:58:11.146Z,9.27
2022-09-30T02:58:46.123Z,9.63
2022-09-30T02:59:18.764Z,8.52
2022-09-30T02:59:52.638Z,9.75
2022-09-30T03:00:25.800Z,10.40
2022-09-30T03:00:58.095Z,9.15
2022-09-30T03:01:30.668Z,9.55
2022-09-30T03:02:05.009Z,10.00
2022-09-30T03:02:36.900Z,9.95
2022-09-30T03:03:15.692Z,9.98
2022-09-30T03:03:51.815Z,10.40
2022-09-30T03:04:27.349Z,10.43
2022-09-30T03:04:59.150Z,9.40
2022-09-30T03:05:32.082Z,10.48
2022-09-30T03:06:04.425Z,9.82
2022-09-30T03:06:37.332Z,9.43
2022-09-30T03:07:11.299Z,9.68
2022-09-30T03:07:43.163Z,8.60
2022-09-30T03:08:15.375Z,9.18
2022-09-30T03:08:49.066Z,10.32
2022-09-30T03:09:25.136Z,9.32
2022-09-30T03:09:57.965Z,10.50
2022-09-30T03:10:31.651Z,9.63
2022-09-30T03:11:04.687Z,9.57
2022-09-30T03:11:38.219Z,10.15
2022-09-30T03:12:22.098Z,9.75
2022-09-30T03:13:10.117Z,8.80
2022-09-30T03:14:19.054Z,9.05
2022-09-30T03:15:07.334Z,8.95
2022-09-30T03:15:55.449Z,8.63
2022-09-30T03:16:45.146Z,8.25
2022-09-30T03:17:40.133Z,8.35
2022-09-30T03:18:24.181Z,8.55
2022-09-30T03:19:13.273Z,9.25
2022-09-30T03:20:06.604Z,8.55
2022-09-30T03:20:49.619Z,7.55
2022-09-30T03:21:37.051Z,7.22
2022-09-30T03:22:35.584Z,7.38
2022-09-30T03:23:29.797Z,7.22
2022-09-30T03:24:23.825Z,7.53
2022-09-30T03:25:14.985Z,7.47
2022-09-30T03:25:57.495Z,7.20
2022-09-30T03:26:38.501Z,7.72
2022-09-30T03:27:22.369Z,7.85
2022-09-30T03:28:05.850Z,7.10
2022-09-30T03:28:46.806Z,7.50
2022-09-30T03:29:29.049Z,8.32
2022-09-30T03:30:06.131Z,8.73
2022-09-30T03:30:45.298Z,7.28
2022-09-30T03:31:26.660Z,8.23
2022-09-30T03:32:10.905Z,7.80
2022-09-30T03:32:59.651Z,6.70
2022-09-30T03:33:43.761Z,7.43
2022-09-30T03:34:23.057Z,7.68
2022-09-30T03:35:09.364Z,6.60
2022-09-30T03:35:48.366Z,7.03
2022-09-30T03:36:30.677Z,7.05
2022-09-30T03:37:10.178Z,6.75
2022-09-30T03:37:51.210Z,6.22
2022-09-30T03:38:35.881Z,6.72
2022-09-30T03:39:17.717Z,5.50
2022-09-30T03:39:57.562Z,5.82
2022-09-30T03:40:37.384Z,7.57
2022-09-30T03:41:15.495Z,5.32
2022-09-30T03:41:53.079Z,6.00
2022-09-30T03:42:29.096Z,5.70
2022-09-30T03:43:06.941Z,5.78
2022-09-30T03:43:43.758Z,6.97
2022-09-30T03:44:22.128Z,6.00
2022-09-30T03:45:01.325Z,6.45
2022-09-30T03:45:38.280Z,5.90
2022-09-30T03:46:19.702Z,6.38
2022-09-30T03:46:55.588Z,5.53
2022-09-30T03:47:31.301Z,7.60
2022-09-30T03:48:08.767Z,5.78
2022-09-30T03:48:43.357Z,5.80
2022-09-30T03:49:20.032Z,6.07
2022-09-30T03:49:56.699Z,5.60
2022-09-30T03:50:31.235Z,6.07
2022-09-30T03:51:04.552Z,7.82
2022-09-30T03:51:38.257Z,6.25
2022-09-30T03:52:13.789Z,7.55
2022-09-30T03:52:46.324Z,5.35
2022-09-30T03:53:18.249Z,6.63
2022-09-30T03:53:51.009Z,5.53
2022-09-30T03:54:22.883Z,5.63
2022-09-30T03:54:58.542Z,6.38
2022-09-30T03:55:33.297Z,5.70
2022-09-30T03:56:05.319Z,6.65
2022-09-30T03:56:41.965Z,5.60
2022-09-30T03:57:14.927Z,6.00
2022-09-30T03:57:46.693Z,6.32
2022-09-30T03:58:22.052Z,5.82
2022-09-30T03:58:54.024Z,6.93
2022-09-30T03:59:28.349Z,5.82
2022-09-30T04:00:01.804Z,7.10
2022-09-30T04:00:33.783Z,6.75
2022-09-30T04:01:05.615Z,6.13
2022-09-30T04:01:39.112Z,6.43
2022-09-30T04:02:13.275Z,6.65
2022-09-30T04:02:46.263Z,6.80
2022-09-30T04:03:20.882Z,6.22
2022-09-30T04:03:53.801Z,6.82
2022-09-30T04:04:26.642Z,7.85
2022-09-30T04:04:59.080Z,53.83
2022-09-30T04:05:30.878Z,40.63
2022-09-30T04:06:03.992Z,49.58
2022-09-30T04:06:35.805Z,39.15
2022-09-30T04:07:08.216Z,30.90
2022-09-30T04:07:40.994Z,28.20
2022-09-30T04:08:12.964Z,18.83
2022-09-30T04:08:44.872Z,20.45
2022-09-30T04:09:17.676Z,23.45
2022-09-30T04:09:49.507Z,22.13
2022-09-30T04:10:21.301Z,15.43
2022-09-30T04:10:54.060Z,13.55
2022-09-30T04:11:25.889Z,11.32
2022-09-30T04:11:57.670Z,9.38
2022-09-30T04:12:30.464Z,7.70
2022-09-30T04:13:02.273Z,8.43
2022-09-30T04:13:34.053Z,8.27
2022-09-30T04:14:06.936Z,7.35
2022-09-30T04:14:38.728Z,7.53
2022-09-30T04:15:11.181Z,7.38
2022-09-30T04:15:43.930Z,7.32
2022-09-30T04:16:15.792Z,6.93
2022-09-30T04:16:50.676Z,7.00
2022-09-30T04:17:26.471Z,7.15
2022-09-30T04:17:58.826Z,7.70
2022-09-30T04:18:32.225Z,6.72
2022-09-30T04:19:05.028Z,7.05
2022-09-30T04:19:39.964Z,7.13
2022-09-30T04:20:12.677Z,7.05
2022-09-30T04:20:45.425Z,7.20
2022-09-30T04:21:17.258Z,6.75
2022-09-30T04:21:51.406Z,7.25
2022-09-30T04:22:26.476Z,7.15
2022-09-30T04:22:58.913Z,6.90
2022-09-30T04:23:30.661Z,7.53
2022-09-30T04:24:03.497Z,7.57
2022-09-30T04:24:35.902Z,7.30
2022-09-30T04:25:08.762Z,7.78
2022-09-30T04:25:40.524Z,7.47
2022-09-30T04:26:15.757Z,7.32
2022-09-30T04:26:47.578Z,7.28
2022-09-30T04:27:20.484Z,8.05
2022-09-30T04:27:52.449Z,7.13
2022-09-30T04:28:25.285Z,7.22
2022-09-30T04:28:58.594Z,7.75
2022-09-30T04:29:30.433Z,9.13
2022-09-30T04:30:03.195Z,9.82
2022-09-30T04:30:35.002Z,10.27
2022-09-30T04:31:07.036Z,10.35
2022-09-30T04:31:39.894Z,10.82
2022-09-30T04:32:11.704Z,10.13
2022-09-30T04:32:45.294Z,16.50
2022-09-30T04:33:17.091Z,20.02
2022-09-30T04:33:50.674Z,27.95
2022-09-30T04:34:23.601Z,17.65
2022-09-30T04:34:55.479Z,16.45
2022-09-30T04:35:29.936Z,14.98
2022-09-30T04:36:03.165Z,13.02
2022-09-30T04:36:35.001Z,11.20
2022-09-30T04:37:10.940Z,7.90
2022-09-30T04:37:43.586Z,7.88
2022-09-30T04:38:15.423Z,9.93
2022-09-30T04:38:48.127Z,8.35
2022-09-30T04:39:20.047Z,8.15
2022-09-30T04:39:51.898Z,8.85
2022-09-30T04:40:25.345Z,8.45
2022-09-30T04:40:57.272Z,8.02
2022-09-30T04:41:29.263Z,8.00
2022-09-30T04:42:02.012Z,9.38
2022-09-30T04:42:33.783Z,8.30
2022-09-30T04:43:05.682Z,7.93
2022-09-30T04:43:38.428Z,8.77
2022-09-30T04:44:10.525Z,12.52
2022-09-30T04:44:42.275Z,7.78
2022-09-30T04:45:15.291Z,8.05
2022-09-30T04:45:47.228Z,9.10
2022-09-30T04:46:20.833Z,8.10
2022-09-30T04:46:54.262Z,8.52
2022-09-30T04:47:26.093Z,7.55
2022-09-30T04:47:57.929Z,7.38
2022-09-30T04:48:31.331Z,8.40
2022-09-30T04:49:08.715Z,7.70
2022-09-30T04:49:41.174Z,7.70
2022-09-30T04:50:14.015Z,8.35
2022-09-30T04:50:45.794Z,8.15
2022-09-30T04:51:19.338Z,8.98
2022-09-30T04:51:52.084Z,9.43
2022-09-30T04:52:23.920Z,26.63
2022-09-30T04:52:57.191Z,36.60
2022-09-30T04:53:30.208Z,51.67
2022-09-30T04:54:02.784Z,54.97
2022-09-30T04:54:35.573Z,46.90
2022-09-30T04:55:09.750Z,30.05
2022-09-30T04:55:41.524Z,27.02
2022-09-30T04:56:16.629Z,21.13
2022-09-30T04:56:48.464Z,17.48
2022-09-30T04:57:20.353Z,14.52
2022-09-30T04:57:53.112Z,11.90
2022-09-30T04:58:24.949Z,10.80
2022-09-30T04:58:57.293Z,11.38
2022-09-30T04:59:30.073Z,10.32
2022-09-30T05:00:02.673Z,13.98
2022-09-30T05:00:34.572Z,8.98
2022-09-30T05:01:09.932Z,9.40
2022-09-30T05:01:43.355Z,8.98
2022-09-30T05:02:15.242Z,9.40
2022-09-30T05:02:48.239Z,9.95
2022-09-30T05:03:20.012Z,9.63
2022-09-30T05:03:52.206Z,9.80
2022-09-30T05:04:26.309Z,9.65
2022-09-30T05:04:58.121Z,10.20
2022-09-30T05:05:30.331Z,10.00
2022-09-30T05:06:03.884Z,9.10
2022-09-30T05:06:36.248Z,8.68
2022-09-30T05:07:08.919Z,9.48
2022-09-30T05:07:41.741Z,8.60
2022-09-30T05:08:13.496Z,8.32
2022-09-30T05:08:46.319Z,8.60
2022-09-30T05:09:19.500Z,8.52
2022-09-30T05:09:52.880Z,8.25
2022-09-30T05:10:24.705Z,9.15
2022-09-30T05:10:58.560Z,10.05
2022-09-30T05:11:30.427Z,8.63
2022-09-30T05:12:03.418Z,8.93
2022-09-30T05:12:36.366Z,10.10
2022-09-30T05:13:08.193Z,10.63
2022-09-30T05:13:41.008Z,9.63
2022-09-30T05:14:13.736Z,9.20
2022-09-30T05:14:45.719Z,9.07
2022-09-30T05:15:17.660Z,8.90
2022-09-30T05:15:50.535Z,9.52
2022-09-30T05:16:22.363Z,10.30
2022-09-30T05:16:54.166Z,10.00
2022-09-30T05:17:27.376Z,9.15
2022-09-30T05:17:59.223Z,9.77
2022-09-30T05:18:31.628Z,9.68
2022-09-30T05:19:04.882Z,8.80
2022-09-30T05:19:37.998Z,9.85
2022-09-30T05:20:11.149Z,8.88
2022-09-30T05:20:44.072Z,8.40
2022-09-30T05:21:19.476Z,9.27
2022-09-30T05:21:52.970Z,25.92
2022-09-30T05:22:25.500Z,34.45
2022-09-30T05:22:57.418Z,32.83
2022-09-30T05:23:32.785Z,54.13
2022-09-30T05:24:04.626Z,50.55
2022-09-30T05:24:37.381Z,37.55
2022-09-30T05:25:09.427Z,34.33
2022-09-30T05:25:41.178Z,19.33
2022-09-30T05:26:14.423Z,16.60
2022-09-30T05:26:46.205Z,15.73
2022-09-30T05:27:18.283Z,13.05
2022-09-30T05:27:51.569Z,11.30
2022-09-30T05:28:23.398Z,9.75
2022-09-30T05:28:55.157Z,11.48
2022-09-30T05:29:28.079Z,10.05
2022-09-30T05:29:59.874Z,10.75
2022-09-30T05:30:31.630Z,8.90
2022-09-30T05:31:06.151Z,9.85
2022-09-30T05:31:38.197Z,10.13
2022-09-30T05:32:10.026Z,9.73
2022-09-30T05:32:42.815Z,10.75
2022-09-30T05:33:14.660Z,9.00
2022-09-30T05:33:47.053Z,10.45
2022-09-30T05:34:21.232Z,11.20
2022-09-30T05:34:55.293Z,10.85
2022-09-30T05:35:27.069Z,9.55
2022-09-30T05:36:00.756Z,10.40
2022-09-30T05:36:33.661Z,9.68
2022-09-30T05:37:06.012Z,10.43
2022-09-30T05:37:37.800Z,8.75
2022-09-30T05:38:11.768Z,10.27
2022-09-30T05:38:43.786Z,19.00
2022-09-30T05:39:15.771Z,21.02
2022-09-30T05:39:48.544Z,22.50
2022-09-30T05:40:20.397Z,40.45
2022-09-30T05:40:53.340Z,23.20
2022-09-30T05:41:25.270Z,17.98
2022-09-30T05:41:57.149Z,15.00
2022-09-30T05:42:32.370Z,15.02
2022-09-30T05:43:04.148Z,12.93
2022-09-30T05:43:37.685Z,12.93
2022-09-30T05:44:10.515Z,13.30
2022-09-30T05:44:42.277Z,12.10
2022-09-30T05:45:14.246Z,11.57
2022-09-30T05:45:54.278Z,11.20
2022-09-30T05:46:26.133Z,11.90
2022-09-30T05:46:59.590Z,11.55
2022-09-30T05:47:32.377Z,11.13
2022-09-30T05:48:05.163Z,12.02
2022-09-30T05:48:37.028Z,12.35
2022-09-30T05:49:09.853Z,11.15
2022-09-30T05:49:41.703Z,11.93
2022-09-30T05:50:14.985Z,11.85
2022-09-30T05:50:51.571Z,11.40
2022-09-30T05:51:23.549Z,11.27
2022-09-30T05:51:56.314Z,11.60
2022-09-30T05:52:28.493Z,14.20
2022-09-30T05:53:00.713Z,14.52
2022-09-30T05:53:34.130Z,15.98
2022-09-30T05:54:06.133Z,18.30
2022-09-30T05:54:38.889Z,26.20
2022-09-30T05:55:10.797Z,33.60
2022-09-30T05:55:46.290Z,27.58
2022-09-30T05:56:19.867Z,28.65
2022-09-30T05:56:52.608Z,22.73
2022-09-30T05:57:25.274Z,19.90
2022-09-30T05:57:57.999Z,17.42
2022-09-30T05:58:29.804Z,15.85
2022-09-30T05:59:01.891Z,15.27
2022-09-30T05:59:34.757Z,12.27
2022-09-30T06:00:07.293Z,13.25
2022-09-30T06:00:39.445Z,12.40
2022-09-30T06:01:14.674Z,11.60
2022-09-30T06:01:46.614Z,11.55
2022-09-30T06:02:18.541Z,12.60
2022-09-30T06:02:54.610Z,12.65
2022-09-30T06:03:26.492Z,12.25
2022-09-30T06:03:59.565Z,13.00
2022-09-30T06:04:31.387Z,12.68
2022-09-30T06:05:06.945Z,13.55
2022-09-30T06:05:41.236Z,12.57
2022-09-30T06:06:13.764Z,12.55
2022-09-30T06:06:47.099Z,12.80
2022-09-30T06:07:18.877Z,12.88
2022-09-30T06:07:50.973Z,13.18
2022-09-30T06:08:23.825Z,12.23
2022-09-30T06:08:56.142Z,12.63
2022-09-30T06:09:28.098Z,13.95
2022-09-30T06:10:01.008Z,13.57
2022-09-30T06:10:33.327Z,12.75
2022-09-30T06:11:11.717Z,11.55
2022-09-30T06:11:44.473Z,13.13
2022-09-30T06:12:16.453Z,13.18
2022-09-30T06:12:48.255Z,12.27
2022-09-30T06:13:21.237Z,13.20
2022-09-30T06:13:54.004Z,13.55
2022-09-30T06:14:25.829Z,13.13
2022-09-30T06:14:57.608Z,14.02
2022-09-30T06:15:30.897Z,15.40
2022-09-30T06:16:02.706Z,14.63
2022-09-30T06:16:35.614Z,14.32
2022-09-30T06:17:07.425Z,14.32
2022-09-30T06:17:39.220Z,22.48
2022-09-30T06:18:17.023Z,23.35
2022-09-30T06:18:49.521Z,20.02
2022-09-30T06:19:22.359Z,19.95
2022-09-30T06:19:54.268Z,13.68
2022-09-30T06:20:26.466Z,17.42
2022-09-30T06:21:02.240Z,14.73
2022-09-30T06:21:34.053Z,14.43
2022-09-30T06:22:05.906Z,13.57
2022-09-30T06:22:39.091Z,13.13
2022-09-30T06:23:10.853Z,12.77
2022-09-30T06:23:43.162Z,12.93
2022-09-30T06:24:15.907Z,13.25
2022-09-30T06:24:50.433Z,12.70
2022-09-30T06:25:26.099Z,13.80
2022-09-30T06:25:59.097Z,14.93
2022-09-30T06:26:30.861Z,12.70
2022-09-30T06:27:02.638Z,12.10
2022-09-30T06:27:35.610Z,13.98
2022-09-30T06:28:07.581Z,12.40
2022-09-30T06:28:39.666Z,12.40
2022-09-30T06:29:12.514Z,13.32
2022-09-30T06:29:44.296Z,11.20
2022-09-30T06:30:16.262Z,11.82
2022-09-30T06:30:49.351Z,12.75
2022-09-30T06:31:21.377Z,12.52
2022-09-30T06:31:54.258Z,12.50
2022-09-30T06:32:26.411Z,12.13
2022-09-30T06:32:58.258Z,12.35
2022-09-30T06:33:31.834Z,12.32
2022-09-30T06:34:04.508Z,12.77
2022-09-30T06:34:37.322Z,14.45
2022-09-30T06:35:10.176Z,13.52
2022-09-30T06:35:42.693Z,12.25
2022-09-30T06:36:17.153Z,14.10
2022-09-30T06:36:48.929Z,13.52
2022-09-30T06:37:20.734Z,12.60
2022-09-30T06:37:53.706Z,13.68
2022-09-30T06:38:27.281Z,12.63
2022-09-30T06:39:00.358Z,12.50
2022-09-30T06:39:33.095Z,13.43
2022-09-30T06:40:06.192Z,13.32
2022-09-30T06:40:38.226Z,14.10
2022-09-30T06:41:11.120Z,12.65
2022-09-30T06:41:43.981Z,13.70
2022-09-30T06:42:15.852Z,12.85
2022-09-30T06:42:49.151Z,12.43
2022-09-30T06:43:21.226Z,13.07
2022-09-30T06:43:59.397Z,12.82
2022-09-30T06:44:45.343Z,12.75
2022-09-30T06:45:31.690Z,12.93
2022-09-30T06:46:14.294Z,12.95
2022-09-30T06:46:53.829Z,14.27
2022-09-30T06:47:26.704Z,14.30
2022-09-30T06:48:00.656Z,13.07
2022-09-30T06:48:38.575Z,14.98
2022-09-30T06:49:13.737Z,14.93
2022-09-30T06:49:49.914Z,13.52
2022-09-30T06:50:25.876Z,15.30
2022-09-30T06:51:01.862Z,13.90
2022-09-30T06:51:37.058Z,13.43
2022-09-30T06:52:09.717Z,14.45
2022-09-30T06:52:41.493Z,13.52
2022-09-30T06:53:14.463Z,13.88
2022-09-30T06:53:50.043Z,13.20
2022-09-30T06:54:26.899Z,18.83
2022-09-30T06:54:58.714Z,50.72
2022-09-30T06:55:30.558Z,48.65
2022-09-30T06:56:03.280Z,39.47
2022-09-30T06:56:35.297Z,38.65
2022-09-30T06:57:07.304Z,38.58
2022-09-30T06:57:42.127Z,28.33
2022-09-30T06:58:15.619Z,23.17
2022-09-30T06:58:47.448Z,19.60
2022-09-30T06:59:20.204Z,18.65
2022-09-30T06:59:52.092Z,16.73
2022-09-30T07:00:24.193Z,16.90
2022-09-30T07:01:01.351Z,15.55
2022-09-30T07:01:33.216Z,14.80
2022-09-30T07:02:05.481Z,14.90
2022-09-30T07:02:39.877Z,14.55
2022-09-30T07:03:24.066Z,13.95
2022-09-30T07:03:57.874Z,12.10
2022-09-30T07:04:30.113Z,14.40
2022-09-30T07:05:04.095Z,15.40
2022-09-30T07:05:36.079Z,13.20
2022-09-30T07:06:08.194Z,14.52
2022-09-30T07:06:42.283Z,13.20
2022-09-30T07:07:14.158Z,13.80
2022-09-30T07:07:46.021Z,11.98
2022-09-30T07:08:18.738Z,11.85
2022-09-30T07:08:51.538Z,12.73
2022-09-30T07:09:24.574Z,12.80
2022-09-30T07:09:59.717Z,12.23
2022-09-30T07:10:31.679Z,13.02
2022-09-30T07:11:08.518Z,12.98
2022-09-30T07:11:40.499Z,12.25
2022-09-30T07:12:12.583Z,12.38
2022-09-30T07:12:45.404Z,13.50
2022-09-30T07:13:17.273Z,12.63
2022-09-30T07:13:49.229Z,13.00
2022-09-30T07:14:23.406Z,11.60
2022-09-30T07:14:56.011Z,14.38
2022-09-30T07:15:27.778Z,13.82
2022-09-30T07:16:00.602Z,15.57
2022-09-30T07:16:33.721Z,17.48
2022-09-30T07:17:07.384Z,32.90
2022-09-30T07:17:39.146Z,29.50
2022-09-30T07:18:10.904Z,22.10
2022-09-30T07:18:44.842Z,19.83
2022-09-30T07:19:17.618Z,21.42
2022-09-30T07:19:51.986Z,27.55
2022-09-30T07:20:25.010Z,23.05
2022-09-30T07:20:57.094Z,23.30
2022-09-30T07:21:30.130Z,40.58
2022-09-30T07:22:18.215Z,26.77
2022-09-30T07:22:51.003Z,19.05
2022-09-30T07:23:27.157Z,23.13
2022-09-30T07:24:00.057Z,31.85
2022-09-30T07:24:32.795Z,24.20
2022-09-30T07:25:05.405Z,21.52
2022-09-30T07:25:37.170Z,21.35
2022-09-30T07:26:09.904Z,22.65
2022-09-30T07:26:41.708Z,18.52
2022-09-30T07:27:13.536Z,18.63
2022-09-30T07:27:46.751Z,14.13
2022-09-30T07:28:18.563Z,14.05
2022-09-30T07:28:51.343Z,14.98
2022-09-30T07:29:24.269Z,14.15
2022-09-30T07:30:08.764Z,12.65
2022-09-30T07:30:44.065Z,12.45
2022-09-30T07:31:35.667Z,13.43
2022-09-30T07:32:08.923Z,13.10
2022-09-30T07:32:40.785Z,12.40
2022-09-30T07:33:16.359Z,13.15
2022-09-30T07:33:51.361Z,12.55
2022-09-30T07:34:23.174Z,13.32
2022-09-30T07:34:54.982Z,22.20
2022-09-30T07:35:27.756Z,21.17
2022-09-30T07:36:00.921Z,23.20
2022-09-30T07:36:34.115Z,28.92
2022-09-30T07:37:09.399Z,24.52
2022-09-30T07:37:41.262Z,21.95
2022-09-30T07:38:13.029Z,20.23
2022-09-30T07:38:49.772Z,18.50
2022-09-30T07:39:21.645Z,21.77
2022-09-30T07:39:54.887Z,27.08
2022-09-30T07:40:31.125Z,33.45
2022-09-30T07:41:06.680Z,29.60
2022-09-30T07:41:41.193Z,26.23